createdAt,value
2017-12-20T00:00:55.901Z,101672.05
2017-12-20T00:03:23.381Z,101675.33
2017-12-20T00:05:50.843Z,101665.70
2017-12-20T00:08:18.313Z,101665.62
2017-12-20T00:10:45.773Z,101669.16
2017-12-20T00:13:13.236Z,101670.48
2017-12-20T00:15:40.691Z,101672.42
2017-12-20T00:18:08.167Z,101673.56
2017-12-20T00:20:35.691Z,101678.17
2017-12-20T00:23:03.179Z,101677.46
2017-12-20T00:25:30.635Z,101669.42
2017-12-20T00:27:58.094Z,101662.52
2017-12-20T00:30:25.561Z,101672.94
2017-12-20T00:32:53.013Z,101671.96
2017-12-20T00:35:20.466Z,101676.14
2017-12-20T00:37:47.922Z,101666.06
2017-12-20T00:40:15.392Z,101663.70
2017-12-20T00:42:42.867Z,101664.41
2017-12-20T00:45:10.447Z,101669.27
2017-12-20T00:47:38.014Z,101675.59
2017-12-20T00:50:05.487Z,101678.26
2017-12-20T00:52:32.980Z,101681.56
2017-12-20T00:55:00.451Z,101679.98
2017-12-20T00:57:27.969Z,101688.49
2017-12-20T00:59:55.461Z,101692.92
2017-12-20T01:02:22.929Z,101701.16
2017-12-20T01:04:50.395Z,101699.98
2017-12-20T01:07:17.935Z,101692.38
2017-12-20T01:09:45.371Z,101692.78
2017-12-20T01:12:12.899Z,101696.97
2017-12-20T01:14:40.358Z,101695.34
2017-12-20T01:17:07.874Z,101694.19
2017-12-20T01:19:35.342Z,101694.80
2017-12-20T01:22:02.795Z,101699.95
2017-12-20T01:24:30.264Z,101695.42
2017-12-20T01:26:57.727Z,101697.44
2017-12-20T01:29:25.191Z,101696.75
2017-12-20T01:31:52.666Z,101687.90
2017-12-20T01:34:20.174Z,101684.03
2017-12-20T01:36:47.703Z,101685.47
2017-12-20T01:39:15.192Z,101682.06
2017-12-20T01:41:42.658Z,101689.14
2017-12-20T01:44:10.119Z,101687.35
2017-12-20T01:46:37.628Z,101687.94
2017-12-20T01:49:05.191Z,101692.08
2017-12-20T01:51:32.656Z,101691.41
2017-12-20T01:54:00.143Z,101687.43
2017-12-20T01:56:27.711Z,101692.48
2017-12-20T01:58:55.166Z,101690.80
2017-12-20T02:01:22.632Z,101689.24
2017-12-20T02:03:50.110Z,101681.69
2017-12-20T02:06:17.604Z,101685.95
2017-12-20T02:08:45.085Z,101689.07
2017-12-20T02:11:12.704Z,101684.27
2017-12-20T02:13:40.314Z,101678.81
2017-12-20T02:16:07.772Z,101677.42
2017-12-20T02:18:35.253Z,101680.44
2017-12-20T02:21:02.726Z,101680.97
2017-12-20T02:23:30.302Z,101691.98
2017-12-20T02:25:57.759Z,101696.20
2017-12-20T02:28:25.251Z,101701.72
2017-12-20T02:30:52.728Z,101692.30
2017-12-20T02:33:36.243Z,101697.48
2017-12-20T02:36:03.698Z,101692.63
2017-12-20T02:38:38.165Z,101699.23
2017-12-20T02:41:14.065Z,101704.04
2017-12-20T02:43:41.561Z,101700.36
2017-12-20T02:46:09.084Z,101704.05
2017-12-20T02:48:36.656Z,101703.59
2017-12-20T02:51:04.122Z,101698.41
2017-12-20T02:53:31.590Z,101691.12
2017-12-20T02:55:59.046Z,101691.69
2017-12-20T02:58:26.511Z,101692.48
2017-12-20T03:00:54.007Z,101696.45
2017-12-20T03:03:21.470Z,101699.08
2017-12-20T03:05:49.044Z,101700.28
2017-12-20T03:08:16.500Z,101705.39
2017-12-20T03:10:43.965Z,101708.68
2017-12-20T03:13:11.442Z,101710.22
2017-12-20T03:15:38.909Z,101700.30
2017-12-20T03:18:06.378Z,101705.79
2017-12-20T03:20:33.916Z,101700.85
2017-12-20T03:23:01.386Z,101700.66
2017-12-20T03:25:28.991Z,101693.24
2017-12-20T03:27:56.449Z,101689.10
2017-12-20T03:30:23.922Z,101695.45
2017-12-20T03:32:51.386Z,101698.41
2017-12-20T03:35:18.841Z,101706.16
2017-12-20T03:37:46.327Z,101705.53
2017-12-20T03:40:13.782Z,101705.53
2017-12-20T03:42:41.242Z,101702.63
2017-12-20T03:45:08.715Z,101706.33
2017-12-20T03:47:36.179Z,101699.95
2017-12-20T03:50:03.649Z,101698.67
2017-12-20T03:52:31.111Z,101696.32
2017-12-20T03:54:58.703Z,101700.50
2017-12-20T03:57:26.157Z,101698.70
2017-12-20T03:59:53.622Z,101704.75
2017-12-20T04:02:21.186Z,101708.03
2017-12-20T04:04:48.697Z,101709.11
2017-12-20T04:07:16.193Z,101705.09
2017-12-20T04:09:43.651Z,101708.03
2017-12-20T04:12:11.158Z,101712.02
2017-12-20T04:14:38.925Z,101712.04
2017-12-20T04:17:06.463Z,101719.94
2017-12-20T04:19:33.974Z,101713.72
2017-12-20T04:22:01.463Z,101721.01
2017-12-20T04:24:29.031Z,101721.91
2017-12-20T04:26:56.498Z,101724.28
2017-12-20T04:29:23.969Z,101717.27
2017-12-20T04:31:51.466Z,101717.42
2017-12-20T04:34:19.027Z,101717.83
2017-12-20T04:36:46.533Z,101710.95
2017-12-20T04:39:14.015Z,101713.23
2017-12-20T04:41:41.474Z,101714.92
2017-12-20T04:44:08.944Z,101718.83
2017-12-20T04:46:36.425Z,101715.00
2017-12-20T04:49:03.935Z,101718.59
2017-12-20T04:51:31.403Z,101721.23
2017-12-20T04:53:58.870Z,101726.55
2017-12-20T04:56:26.353Z,101722.28
2017-12-20T04:58:53.929Z,101720.02
2017-12-20T05:01:21.502Z,101724.52
2017-12-20T05:03:48.983Z,101725.57
2017-12-20T05:06:16.540Z,101719.73
2017-12-20T05:08:44.038Z,101723.61
2017-12-20T05:11:11.495Z,101734.82
2017-12-20T05:13:39.038Z,101739.23
2017-12-20T05:16:06.537Z,101736.42
2017-12-20T05:18:33.998Z,101739.64
2017-12-20T05:21:01.466Z,101733.94
2017-12-20T05:23:28.925Z,101737.06
2017-12-20T05:25:56.411Z,101735.57
2017-12-20T05:28:23.881Z,101741.30
2017-12-20T05:30:51.460Z,101742.48
2017-12-20T05:33:19.615Z,101753.70
2017-12-20T05:35:47.098Z,101755.87
2017-12-20T05:38:14.842Z,101752.89
2017-12-20T05:40:42.305Z,101748.87
2017-12-20T05:43:09.874Z,101746.31
2017-12-20T05:45:37.399Z,101742.67
2017-12-20T05:48:04.865Z,101744.48
2017-12-20T05:50:32.336Z,101746.63
2017-12-20T05:52:59.827Z,101751.51
2017-12-20T05:55:27.281Z,101749.41
2017-12-20T05:57:54.759Z,101755.22
2017-12-20T06:00:22.265Z,101760.73
2017-12-20T06:02:49.744Z,101761.59
2017-12-20T06:05:17.207Z,101760.97
2017-12-20T06:07:44.673Z,101756.53
2017-12-20T06:10:12.145Z,101762.41
2017-12-20T06:12:39.597Z,101756.11
2017-12-20T06:15:07.077Z,101761.20
2017-12-20T06:17:34.555Z,101760.72
2017-12-20T06:20:02.030Z,101762.59
2017-12-20T06:22:29.564Z,101758.22
2017-12-20T06:24:57.028Z,101765.84
2017-12-20T06:27:24.510Z,101766.95
2017-12-20T06:29:52.192Z,101767.33
2017-12-20T06:32:19.659Z,101766.85
2017-12-20T06:34:47.128Z,101769.50
2017-12-20T06:37:14.652Z,101769.53
2017-12-20T06:39:42.109Z,101781.60
2017-12-20T06:42:09.567Z,101782.05
2017-12-20T06:44:37.027Z,101782.11
2017-12-20T06:47:04.489Z,101786.92
2017-12-20T06:49:31.950Z,101780.58
2017-12-20T06:51:59.443Z,101786.89
2017-12-20T06:54:26.905Z,101791.51
2017-12-20T06:56:54.381Z,101793.51
2017-12-20T06:59:21.947Z,101791.13
2017-12-20T07:01:49.599Z,101790.02
2017-12-20T07:04:17.066Z,101787.77
2017-12-20T07:06:44.563Z,101786.96
2017-12-20T07:09:12.152Z,101784.76
2017-12-20T07:11:39.712Z,101786.25
2017-12-20T07:14:07.238Z,101792.86
2017-12-20T07:16:34.704Z,101795.38
2017-12-20T07:19:02.227Z,101795.84
2017-12-20T07:21:29.694Z,101794.15
2017-12-20T07:23:57.170Z,101794.05
2017-12-20T07:26:24.646Z,101800.05
2017-12-20T07:28:52.220Z,101793.64
2017-12-20T07:31:19.697Z,101798.12
2017-12-20T07:33:47.172Z,101799.23
2017-12-20T07:36:14.731Z,101800.12
2017-12-20T07:38:42.294Z,101801.10
2017-12-20T07:41:09.751Z,101811.20
2017-12-20T07:43:37.211Z,101812.66
2017-12-20T07:46:04.710Z,101811.98
2017-12-20T07:48:32.187Z,101810.26
2017-12-20T07:50:59.661Z,101813.81
2017-12-20T07:53:27.952Z,101813.81
2017-12-20T07:55:55.524Z,101816.23
2017-12-20T07:58:23.088Z,101817.38
2017-12-20T08:00:50.562Z,101822.39
2017-12-20T08:03:18.013Z,101822.12
2017-12-20T08:05:45.486Z,101822.59
2017-12-20T08:08:12.953Z,101820.56
2017-12-20T08:10:40.454Z,101826.36
2017-12-20T08:13:07.911Z,101823.72
2017-12-20T08:15:35.402Z,101816.02
2017-12-20T08:18:02.902Z,101823.43
2017-12-20T08:20:30.356Z,101820.34
2017-12-20T08:22:57.844Z,101824.27
2017-12-20T08:25:25.294Z,101819.02
2017-12-20T08:27:52.849Z,101813.09
2017-12-20T08:30:20.350Z,101821.92
2017-12-20T08:32:47.886Z,101835.83
2017-12-20T08:35:15.450Z,101836.57
2017-12-20T08:37:43.023Z,101838.17
2017-12-20T08:40:10.483Z,101850.28
2017-12-20T08:42:37.972Z,101849.94
2017-12-20T08:45:05.441Z,101854.59
2017-12-20T08:47:32.951Z,101856.02
2017-12-20T08:50:00.478Z,101851.54
2017-12-20T08:52:27.938Z,101853.14
2017-12-20T08:54:55.403Z,101863.01
2017-12-20T08:57:22.866Z,101863.42
2017-12-20T08:59:50.365Z,101863.73
2017-12-20T09:02:17.850Z,101873.91
2017-12-20T09:04:45.405Z,101869.66
2017-12-20T09:07:12.887Z,101868.94
2017-12-20T09:09:40.371Z,101870.47
2017-12-20T09:12:08.027Z,101873.08
2017-12-20T09:14:35.502Z,101874.94
2017-12-20T09:17:02.971Z,101881.97
2017-12-20T09:19:30.530Z,101877.59
2017-12-20T09:21:57.995Z,101878.88
2017-12-20T09:24:25.469Z,101877.22
2017-12-20T09:26:52.939Z,101876.50
2017-12-20T09:29:20.440Z,101878.61
2017-12-20T09:31:47.997Z,101878.20
2017-12-20T09:34:15.607Z,101882.30
2017-12-20T09:36:43.145Z,101878.82
2017-12-20T09:39:10.714Z,101876.17
2017-12-20T09:41:38.187Z,101874.92
2017-12-20T09:44:05.666Z,101869.20
2017-12-20T09:46:33.217Z,101872.50
2017-12-20T09:49:00.681Z,101869.88
2017-12-20T09:51:28.145Z,101875.50
2017-12-20T09:53:55.637Z,101870.45
2017-12-20T09:56:23.103Z,101864.48
2017-12-20T09:58:50.610Z,101858.47
2017-12-20T10:01:18.076Z,101857.30
2017-12-20T10:03:45.583Z,101851.44
2017-12-20T10:06:13.086Z,101843.49
2017-12-20T10:08:40.745Z,101850.39
2017-12-20T10:11:08.224Z,101853.13
2017-12-20T10:13:35.683Z,101851.59
2017-12-20T10:16:03.177Z,101855.59
2017-12-20T10:18:30.645Z,101854.14
2017-12-20T10:20:58.115Z,101853.87
2017-12-20T10:23:25.591Z,101852.23
2017-12-20T10:25:53.213Z,101853.09
2017-12-20T10:28:20.681Z,101850.61
2017-12-20T10:30:48.153Z,101852.77
2017-12-20T10:33:15.627Z,101853.53
2017-12-20T10:35:43.087Z,101856.03
2017-12-20T10:38:10.561Z,101847.11
2017-12-20T10:40:38.194Z,101853.93
2017-12-20T10:43:05.679Z,101852.27
2017-12-20T10:45:33.142Z,101844.23
2017-12-20T10:48:00.717Z,101841.20
2017-12-20T10:50:28.180Z,101842.69
2017-12-20T10:52:55.810Z,101847.28
2017-12-20T10:55:23.331Z,101844.50
2017-12-20T10:57:50.800Z,101840.97
2017-12-20T11:00:18.287Z,101843.56
2017-12-20T11:02:45.778Z,101842.72
2017-12-20T11:05:13.315Z,101841.25
2017-12-20T11:07:40.789Z,101834.01
2017-12-20T11:10:08.256Z,101832.57
2017-12-20T11:12:35.709Z,101832.88
2017-12-20T11:15:03.194Z,101835.96
2017-12-20T11:17:30.671Z,101826.52
2017-12-20T11:19:58.142Z,101824.89
2017-12-20T11:22:25.641Z,101822.02
2017-12-20T11:24:53.104Z,101822.81
2017-12-20T11:27:20.642Z,101815.63
2017-12-20T11:29:48.114Z,101820.33
2017-12-20T11:32:15.583Z,101813.36
2017-12-20T11:34:43.058Z,101814.63
2017-12-20T11:37:10.623Z,101812.31
2017-12-20T11:39:38.379Z,101806.73
2017-12-20T11:42:05.881Z,101799.80
2017-12-20T11:44:33.345Z,101801.64
2017-12-20T11:47:00.826Z,101801.53
2017-12-20T11:49:28.394Z,101797.62
2017-12-20T11:51:55.879Z,101784.00
2017-12-20T11:54:23.354Z,101789.94
2017-12-20T11:56:50.921Z,101776.04
2017-12-20T11:59:18.403Z,101780.66
2017-12-20T12:01:45.945Z,101780.23
2017-12-20T12:04:13.423Z,101768.52
2017-12-20T12:06:40.895Z,101771.16
2017-12-20T12:09:08.385Z,101770.14
2017-12-20T12:11:35.858Z,101765.44
2017-12-20T12:14:03.414Z,101761.80
2017-12-20T12:16:30.885Z,101769.02
2017-12-20T12:18:58.341Z,101767.92
2017-12-20T12:21:25.908Z,101760.86
2017-12-20T12:23:53.362Z,101770.86
2017-12-20T12:26:20.966Z,101769.47
2017-12-20T12:28:48.440Z,101766.47
2017-12-20T12:31:15.919Z,101763.79
2017-12-20T12:33:43.390Z,101772.75
2017-12-20T12:36:10.846Z,101764.09
2017-12-20T12:38:38.315Z,101769.72
2017-12-20T12:41:05.782Z,101768.78
2017-12-20T12:43:33.309Z,101771.11
2017-12-20T12:46:00.774Z,101765.31
2017-12-20T12:48:28.299Z,101751.50
2017-12-20T12:50:55.780Z,101757.70
2017-12-20T12:53:23.335Z,101760.05
2017-12-20T12:55:50.824Z,101756.47
2017-12-20T12:58:18.298Z,101755.31
2017-12-20T13:00:45.786Z,101756.16
2017-12-20T13:03:13.268Z,101757.62
2017-12-20T13:05:40.753Z,101762.41
2017-12-20T13:08:08.214Z,101761.50
2017-12-20T13:10:35.684Z,101760.91
2017-12-20T13:13:03.146Z,101762.23
2017-12-20T13:15:30.617Z,101762.94
2017-12-20T13:17:58.074Z,101766.81
2017-12-20T13:20:25.600Z,101765.47
2017-12-20T13:22:53.067Z,101767.58
2017-12-20T13:25:20.542Z,101771.55
2017-12-20T13:27:48.012Z,101773.16
2017-12-20T13:30:15.471Z,101774.05
2017-12-20T13:32:42.963Z,101772.20
2017-12-20T13:35:10.443Z,101765.86
2017-12-20T13:37:37.916Z,101772.87
2017-12-20T13:40:05.374Z,101771.63
2017-12-20T13:42:32.877Z,101776.17
2017-12-20T13:45:00.342Z,101781.88
2017-12-20T13:47:27.834Z,101771.84
2017-12-20T13:49:55.320Z,101778.26
2017-12-20T13:52:22.786Z,101771.33
2017-12-20T13:54:50.258Z,101774.80
2017-12-20T13:57:17.726Z,101772.11
2017-12-20T13:59:45.200Z,101783.94
2017-12-20T14:02:12.674Z,101782.42
2017-12-20T14:04:40.154Z,101782.61
2017-12-20T14:07:07.619Z,101779.55
2017-12-20T14:09:35.096Z,101777.67
2017-12-20T14:12:02.558Z,101779.70
2017-12-20T14:14:30.054Z,101782.58
2017-12-20T14:16:57.510Z,101784.12
2017-12-20T14:19:25.001Z,101781.99
2017-12-20T14:21:52.463Z,101790.47
2017-12-20T14:24:19.940Z,101779.96
2017-12-20T14:26:47.410Z,101779.70
2017-12-20T14:29:14.893Z,101784.94
2017-12-20T14:31:42.362Z,101780.27
2017-12-20T14:34:09.820Z,101777.72
2017-12-20T14:36:37.286Z,101784.57
2017-12-20T14:39:04.768Z,101781.92
2017-12-20T14:41:32.246Z,101786.01
2017-12-20T14:43:59.720Z,101786.56
2017-12-20T14:46:27.296Z,101789.03
2017-12-20T14:48:54.801Z,101781.07
2017-12-20T14:51:22.446Z,101780.99
2017-12-20T14:53:50.044Z,101788.85
2017-12-20T14:56:17.545Z,101779.34
2017-12-20T14:58:45.025Z,101780.99
2017-12-20T15:01:12.869Z,101777.71
2017-12-20T15:03:40.326Z,101776.39
2017-12-20T15:06:07.779Z,101784.75
2017-12-20T15:08:35.356Z,101779.63
2017-12-20T15:11:02.831Z,101776.53
2017-12-20T15:13:30.306Z,101776.28
2017-12-20T15:15:57.763Z,101781.99
2017-12-20T15:18:25.252Z,101779.59
2017-12-20T15:20:52.795Z,101773.83
2017-12-20T15:23:20.267Z,101772.45
2017-12-20T15:25:47.729Z,101774.77
2017-12-20T15:28:15.199Z,101771.89
2017-12-20T15:30:42.734Z,101775.98
2017-12-20T15:33:10.227Z,101775.29
2017-12-20T15:35:37.687Z,101771.78
2017-12-20T15:38:05.147Z,101774.89
2017-12-20T15:40:32.619Z,101775.70
2017-12-20T15:43:00.077Z,101770.20
2017-12-20T15:45:27.545Z,101772.52
2017-12-20T15:47:55.016Z,101769.66
2017-12-20T15:50:22.473Z,101772.87
2017-12-20T15:52:49.969Z,101773.00
2017-12-20T15:55:17.447Z,101769.46
2017-12-20T15:57:44.994Z,101772.23
2017-12-20T16:00:12.454Z,101774.55
2017-12-20T16:02:39.918Z,101778.59
2017-12-20T16:05:07.413Z,101775.37
2017-12-20T16:07:34.872Z,101777.33
2017-12-20T16:10:02.389Z,101768.27
2017-12-20T16:12:29.849Z,101777.25
2017-12-20T16:14:57.305Z,101777.02
2017-12-20T16:17:24.818Z,101775.02
2017-12-20T16:19:52.285Z,101782.75
2017-12-20T16:22:19.760Z,101779.17
2017-12-20T16:24:47.223Z,101777.50
2017-12-20T16:27:14.804Z,101781.94
2017-12-20T16:29:42.265Z,101779.33
2017-12-20T16:32:09.723Z,101778.81
2017-12-20T16:34:37.205Z,101780.72
2017-12-20T16:37:10.946Z,101776.11
2017-12-20T16:39:38.408Z,101774.55
2017-12-20T16:42:05.871Z,101778.52
2017-12-20T16:44:33.331Z,101781.34
2017-12-20T16:47:00.816Z,101778.98
2017-12-20T16:49:28.286Z,101781.69
2017-12-20T16:51:55.753Z,101789.22
2017-12-20T16:54:23.218Z,101795.11
2017-12-20T16:56:50.685Z,101786.16
2017-12-20T16:59:18.165Z,101794.70
2017-12-20T17:01:45.682Z,101785.13
2017-12-20T17:04:13.177Z,101784.55
2017-12-20T17:06:40.692Z,101784.02
2017-12-20T17:09:08.154Z,101791.19
2017-12-20T17:11:35.619Z,101790.84
2017-12-20T17:14:03.097Z,101786.20
2017-12-20T17:16:30.566Z,101793.64
2017-12-20T17:18:58.039Z,101791.59
2017-12-20T17:21:25.499Z,101790.29
2017-12-20T17:23:52.989Z,101799.30
2017-12-20T17:26:20.446Z,101793.05
2017-12-20T17:28:47.967Z,101793.55
2017-12-20T17:31:15.435Z,101793.95
2017-12-20T17:33:43.042Z,101799.55
2017-12-20T17:36:10.519Z,101801.21
2017-12-20T17:38:38.018Z,101796.77
2017-12-20T17:41:05.493Z,101796.74
2017-12-20T17:43:32.960Z,101797.38
2017-12-20T17:46:00.430Z,101798.45
2017-12-20T17:48:27.885Z,101792.08
2017-12-20T17:50:55.438Z,101793.06
2017-12-20T17:53:22.934Z,101796.33
2017-12-20T17:55:50.461Z,101802.54
2017-12-20T17:58:17.916Z,101802.56
2017-12-20T18:00:45.386Z,101804.06
2017-12-20T18:03:12.887Z,101800.56
2017-12-20T18:05:40.433Z,101804.35
2017-12-20T18:08:07.885Z,101811.38
2017-12-20T18:10:35.341Z,101805.30
2017-12-20T18:13:02.869Z,101808.99
2017-12-20T18:15:30.392Z,101803.84
2017-12-20T18:17:57.859Z,101801.78
2017-12-20T18:20:25.335Z,101797.59
2017-12-20T18:22:52.814Z,101803.83
2017-12-20T18:25:20.313Z,101801.56
2017-12-20T18:27:47.787Z,101794.20
2017-12-20T18:30:15.251Z,101794.30
2017-12-20T18:32:42.716Z,101795.54
2017-12-20T18:35:10.199Z,101807.30
2017-12-20T18:37:37.669Z,101803.45
2017-12-20T18:40:05.191Z,101811.25
2017-12-20T18:42:32.674Z,101812.00
2017-12-20T18:45:00.287Z,101816.10
2017-12-20T18:47:27.835Z,101818.79
2017-12-20T18:49:55.387Z,101821.84
2017-12-20T18:52:22.947Z,101816.39
2017-12-20T18:54:50.460Z,101823.68
2017-12-20T18:57:17.995Z,101820.48
2017-12-20T18:59:45.571Z,101819.40
2017-12-20T19:02:13.035Z,101822.89
2017-12-20T19:04:40.498Z,101820.92
2017-12-20T19:07:08.014Z,101824.28
2017-12-20T19:09:35.452Z,101826.69
2017-12-20T19:12:02.994Z,101818.88
2017-12-20T19:14:30.499Z,101821.06
2017-12-20T19:16:57.993Z,101825.03
2017-12-20T19:19:25.452Z,101824.08
2017-12-20T19:21:53.026Z,101816.11
2017-12-20T19:24:20.505Z,101814.69
2017-12-20T19:26:48.007Z,101810.84
2017-12-20T19:29:15.537Z,101810.03
2017-12-20T19:31:43.063Z,101815.73
2017-12-20T19:34:10.594Z,101811.20
2017-12-20T19:36:38.110Z,101813.14
2017-12-20T19:39:05.582Z,101817.36
2017-12-20T19:41:33.105Z,101806.49
2017-12-20T19:44:00.633Z,101807.41
2017-12-20T19:46:28.132Z,101808.82
2017-12-20T19:48:55.686Z,101806.78
2017-12-20T19:51:23.217Z,101805.77
2017-12-20T19:53:50.738Z,101804.16
2017-12-20T19:56:18.223Z,101806.10
2017-12-20T19:58:45.681Z,101804.70
2017-12-20T20:01:13.226Z,101798.91
2017-12-20T20:03:40.733Z,101797.94
2017-12-20T20:06:08.256Z,101787.91
2017-12-20T20:08:35.815Z,101785.47
2017-12-20T20:11:03.332Z,101792.57
2017-12-20T20:13:30.859Z,101787.48
2017-12-20T20:15:58.350Z,101789.92
2017-12-20T20:18:25.868Z,101781.14
2017-12-20T20:20:53.396Z,101787.73
2017-12-20T20:23:20.934Z,101787.15
2017-12-20T20:25:48.457Z,101786.84
2017-12-20T20:28:16.012Z,101782.54
2017-12-20T20:30:43.537Z,101780.09
2017-12-20T20:33:11.069Z,101785.02
2017-12-20T20:35:41.018Z,101786.92
2017-12-20T20:38:08.520Z,101783.66
2017-12-20T20:40:36.030Z,101778.16
2017-12-20T20:43:03.511Z,101778.56
2017-12-20T20:45:30.965Z,101783.81
2017-12-20T20:47:58.488Z,101775.56
2017-12-20T20:50:26.029Z,101774.11
2017-12-20T20:52:53.501Z,101774.44
2017-12-20T20:55:21.037Z,101768.36
2017-12-20T20:57:48.556Z,101766.66
2017-12-20T21:00:16.086Z,101758.07
2017-12-20T21:02:43.549Z,101767.80
2017-12-20T21:05:11.075Z,101765.81
2017-12-20T21:07:38.546Z,101766.63
2017-12-20T21:10:06.102Z,101763.38
2017-12-20T21:12:33.608Z,101760.34
2017-12-20T21:15:01.116Z,101758.69
2017-12-20T21:17:28.642Z,101754.16
2017-12-20T21:19:56.171Z,101757.84
2017-12-20T21:22:23.660Z,101757.64
2017-12-20T21:24:51.124Z,101759.63
2017-12-20T21:27:18.595Z,101753.62
2017-12-20T21:29:46.104Z,101758.84
2017-12-20T21:32:13.633Z,101754.17
2017-12-20T21:34:41.158Z,101749.55
2017-12-20T21:37:08.698Z,101750.69
2017-12-20T21:39:36.215Z,101748.55
2017-12-20T21:42:03.748Z,101749.85
2017-12-20T21:44:31.269Z,101749.16
2017-12-20T21:46:58.797Z,101743.56
2017-12-20T21:49:26.326Z,101744.23
2017-12-20T21:51:53.858Z,101751.10
2017-12-20T21:54:21.392Z,101752.50
2017-12-20T21:56:48.910Z,101751.89
2017-12-20T21:59:16.902Z,101750.12
2017-12-20T22:01:44.508Z,101750.28
2017-12-20T22:04:12.032Z,101748.53
2017-12-20T22:06:39.660Z,101746.77
2017-12-20T22:09:07.175Z,101759.02
2017-12-20T22:11:34.713Z,101750.91
2017-12-20T22:14:02.236Z,101743.34
2017-12-20T22:16:29.762Z,101742.84
2017-12-20T22:18:57.220Z,101730.27
2017-12-20T22:21:24.749Z,101737.80
2017-12-20T22:23:52.216Z,101725.66
2017-12-20T22:26:19.763Z,101728.59
2017-12-20T22:28:47.267Z,101721.73
2017-12-20T22:31:14.779Z,101722.36
2017-12-20T22:33:42.338Z,101720.70
2017-12-20T22:36:09.857Z,101729.27
2017-12-20T22:38:37.330Z,101722.69
2017-12-20T22:41:04.853Z,101722.61
2017-12-20T22:43:32.467Z,101726.23
2017-12-20T22:45:59.980Z,101716.98
2017-12-20T22:48:27.573Z,101721.75
2017-12-20T22:50:55.083Z,101717.66
2017-12-20T22:53:22.665Z,101722.86
2017-12-20T22:55:50.137Z,101717.61
2017-12-20T22:58:17.621Z,101719.00
2017-12-20T23:00:45.085Z,101719.02
2017-12-20T23:03:12.575Z,101710.27
2017-12-20T23:05:40.082Z,101713.12
2017-12-20T23:08:07.552Z,101710.19
2017-12-20T23:10:35.090Z,101708.86
2017-12-20T23:13:02.615Z,101711.08
2017-12-20T23:15:30.078Z,101706.76
2017-12-20T23:17:57.575Z,101706.06
2017-12-20T23:20:25.092Z,101709.24
2017-12-20T23:22:52.563Z,101706.94
2017-12-20T23:25:20.095Z,101714.19
2017-12-20T23:27:47.570Z,101716.78
2017-12-20T23:30:15.105Z,101707.00
2017-12-20T23:32:42.574Z,101702.15
2017-12-20T23:35:10.108Z,101700.20
2017-12-20T23:37:37.614Z,101701.34
2017-12-20T23:40:05.108Z,101701.65
2017-12-20T23:42:32.629Z,101702.90
2017-12-20T23:45:00.134Z,101694.44
2017-12-20T23:47:27.598Z,101694.21
2017-12-20T23:49:55.054Z,101680.89
2017-12-20T23:52:22.590Z,101677.89
2017-12-20T23:54:50.049Z,101679.22
2017-12-20T23:57:18.373Z,101678.41
2017-12-20T23:59:45.856Z,101672.75
